createdAt,value
2022-11-16T00:02:19.846Z,11.67
2022-11-16T00:04:49.045Z,12.10
2022-11-16T00:07:19.733Z,12.47
2022-11-16T00:09:48.883Z,12.70
2022-11-16T00:12:17.989Z,12.10
2022-11-16T00:14:47.109Z,13.20
2022-11-16T00:17:16.245Z,12.93
2022-11-16T00:19:45.433Z,12.07
2022-11-16T00:22:14.828Z,11.70
2022-11-16T00:24:45.463Z,12.10
2022-11-16T00:27:14.627Z,11.80
2022-11-16T00:29:43.708Z,13.60
2022-11-16T00:32:13.200Z,12.17
2022-11-16T00:34:42.314Z,13.70
2022-11-16T00:37:11.483Z,12.73
2022-11-16T00:39:40.634Z,12.20
2022-11-16T00:42:11.200Z,13.07
2022-11-16T00:44:40.289Z,13.67
2022-11-16T00:47:09.461Z,12.63
2022-11-16T00:49:38.618Z,14.53
2022-11-16T00:52:08.185Z,12.73
2022-11-16T00:54:37.366Z,13.77
2022-11-16T00:57:06.845Z,13.57
2022-11-16T00:59:37.403Z,13.40
2022-11-16T01:02:06.603Z,13.00
2022-11-16T01:04:35.727Z,13.87
2022-11-16T01:07:04.883Z,14.40
2022-11-16T01:09:34.089Z,14.00
2022-11-16T01:12:12.551Z,12.70
2022-11-16T01:14:46.205Z,12.70
2022-11-16T01:17:16.050Z,14.07
2022-11-16T01:19:45.234Z,13.07
2022-11-16T01:22:14.388Z,14.10
2022-11-16T01:24:43.703Z,13.87
2022-11-16T01:27:13.122Z,14.00
2022-11-16T01:29:47.196Z,13.53
2022-11-16T01:32:16.377Z,12.87
2022-11-16T01:34:46.342Z,14.27
2022-11-16T01:37:27.242Z,13.90
2022-11-16T01:39:56.421Z,13.33
2022-11-16T01:42:27.358Z,14.23
2022-11-16T01:45:08.705Z,14.50
2022-11-16T01:47:37.889Z,13.33
2022-11-16T01:50:14.162Z,14.20
2022-11-16T01:52:53.092Z,13.87
2022-11-16T01:55:25.013Z,13.17
2022-11-16T01:58:20.334Z,13.57
2022-11-16T02:00:55.494Z,14.07
2022-11-16T02:03:37.991Z,14.00
2022-11-16T02:06:21.141Z,13.83
2022-11-16T02:09:30.856Z,14.10
2022-11-16T02:12:22.474Z,14.07
2022-11-16T02:15:05.244Z,15.30
2022-11-16T02:17:41.635Z,14.83
2022-11-16T02:20:51.396Z,15.13
2022-11-16T02:24:07.832Z,14.60
2022-11-16T02:26:50.495Z,15.03
2022-11-16T02:29:29.444Z,16.17
2022-11-16T02:32:04.642Z,13.70
2022-11-16T02:34:39.030Z,15.80
2022-11-16T02:37:12.110Z,14.57
2022-11-16T02:39:43.848Z,14.13
2022-11-16T02:42:18.340Z,15.33
2022-11-16T02:44:52.699Z,16.17
2022-11-16T02:47:26.314Z,14.87
2022-11-16T02:50:00.915Z,15.63
2022-11-16T02:52:31.434Z,15.10
2022-11-16T02:55:00.704Z,15.63
2022-11-16T02:57:43.231Z,14.33
2022-11-16T03:00:22.575Z,15.00
2022-11-16T03:03:02.784Z,13.63
2022-11-16T03:05:36.462Z,14.30
2022-11-16T03:08:19.687Z,13.80
2022-11-16T03:11:12.080Z,15.83
2022-11-16T03:13:44.302Z,15.47
2022-11-16T03:16:21.885Z,14.27
2022-11-16T03:18:55.306Z,14.57
2022-11-16T03:21:31.697Z,14.50
2022-11-16T03:24:01.176Z,14.07
2022-11-16T03:26:38.210Z,13.77
2022-11-16T03:29:14.970Z,13.47
2022-11-16T03:31:50.674Z,14.27
2022-11-16T03:34:26.975Z,14.80
2022-11-16T03:36:57.707Z,13.47
2022-11-16T03:39:31.284Z,12.83
2022-11-16T03:42:03.926Z,13.83
2022-11-16T03:44:33.901Z,13.97
2022-11-16T03:47:05.304Z,14.97
2022-11-16T03:49:35.166Z,12.57
2022-11-16T03:52:05.582Z,14.50
2022-11-16T03:54:35.921Z,15.13
2022-11-16T03:57:05.131Z,14.17
2022-11-16T03:59:34.924Z,14.50
2022-11-16T04:02:05.795Z,12.83
2022-11-16T04:04:52.391Z,13.87
2022-11-16T04:07:39.121Z,14.20
2022-11-16T04:10:26.975Z,14.20
2022-11-16T04:13:14.279Z,14.07
2022-11-16T04:16:00.728Z,12.90
2022-11-16T04:18:48.797Z,13.73
2022-11-16T04:21:40.822Z,14.17
2022-11-16T04:24:14.808Z,13.27
2022-11-16T04:27:06.389Z,14.00
2022-11-16T04:29:36.647Z,13.90
2022-11-16T04:32:38.966Z,13.77
2022-11-16T04:35:27.517Z,14.10
2022-11-16T04:37:59.611Z,13.87
2022-11-16T04:40:33.919Z,13.83
2022-11-16T04:43:04.397Z,13.37
2022-11-16T04:45:54.450Z,14.83
2022-11-16T04:48:27.553Z,12.63
2022-11-16T04:50:58.999Z,13.93
2022-11-16T04:53:28.802Z,14.03
2022-11-16T04:56:06.624Z,13.20
2022-11-16T04:58:36.727Z,14.37
2022-11-16T05:01:06.113Z,13.50
2022-11-16T05:03:35.713Z,13.40
2022-11-16T05:06:06.526Z,12.37
2022-11-16T05:08:36.608Z,14.17
2022-11-16T05:11:07.423Z,13.00
2022-11-16T05:13:36.545Z,13.83
2022-11-16T05:16:06.206Z,14.43
2022-11-16T05:18:35.596Z,15.20
2022-11-16T05:21:06.430Z,11.90
2022-11-16T05:23:57.163Z,13.90
2022-11-16T05:26:30.683Z,14.10
2022-11-16T05:28:59.885Z,14.10
2022-11-16T05:31:29.073Z,14.93
2022-11-16T05:33:58.453Z,13.53
2022-11-16T05:36:29.090Z,14.50
2022-11-16T05:38:58.353Z,13.37
2022-11-16T05:41:30.160Z,12.60
2022-11-16T05:44:01.078Z,12.97
2022-11-16T05:46:30.281Z,13.37
2022-11-16T05:49:02.021Z,13.20
2022-11-16T05:51:33.515Z,14.77
2022-11-16T05:54:03.259Z,13.93
2022-11-16T05:56:32.870Z,13.40
2022-11-16T05:59:02.342Z,13.30
2022-11-16T06:01:32.157Z,14.37
2022-11-16T06:04:01.771Z,14.10
2022-11-16T06:06:34.592Z,13.80
2022-11-16T06:09:05.141Z,12.17
2022-11-16T06:11:36.642Z,14.53
2022-11-16T06:14:07.062Z,13.47
2022-11-16T06:16:37.518Z,12.07
2022-11-16T06:19:09.914Z,12.90
2022-11-16T06:21:40.961Z,13.17
2022-11-16T06:24:15.951Z,13.30
2022-11-16T06:26:47.116Z,11.87
2022-11-16T06:29:16.715Z,13.07
2022-11-16T06:31:45.862Z,14.60
2022-11-16T06:34:15.633Z,13.27
2022-11-16T06:36:46.762Z,13.30
2022-11-16T06:39:16.458Z,12.53
2022-11-16T06:41:45.574Z,12.73
2022-11-16T06:44:15.878Z,13.30
2022-11-16T06:46:54.892Z,12.50
2022-11-16T06:49:24.913Z,12.40
2022-11-16T06:51:57.457Z,15.13
2022-11-16T06:54:27.763Z,13.40
2022-11-16T06:56:57.298Z,13.03
2022-11-16T06:59:26.533Z,12.53
2022-11-16T07:01:55.642Z,13.37
2022-11-16T07:04:24.983Z,12.83
2022-11-16T07:06:59.619Z,13.43
2022-11-16T07:09:29.487Z,13.13
2022-11-16T07:11:58.717Z,11.63
2022-11-16T07:14:27.884Z,13.33
2022-11-16T07:17:00.384Z,12.87
2022-11-16T07:19:32.269Z,12.87
2022-11-16T07:22:03.465Z,14.53
2022-11-16T07:24:32.983Z,13.87
2022-11-16T07:27:02.123Z,13.70
2022-11-16T07:29:36.379Z,14.37
2022-11-16T07:32:25.731Z,14.40
2022-11-16T07:35:03.663Z,13.37
2022-11-16T07:37:35.189Z,13.80
2022-11-16T07:40:05.962Z,14.97
2022-11-16T07:42:35.142Z,13.70
2022-11-16T07:45:24.502Z,12.57
2022-11-16T07:47:58.833Z,12.30
2022-11-16T07:51:00.535Z,13.40
2022-11-16T07:53:33.442Z,14.50
2022-11-16T07:56:02.956Z,13.53
2022-11-16T07:58:35.433Z,13.63
2022-11-16T08:01:06.621Z,13.07
2022-11-16T08:03:38.054Z,13.60
2022-11-16T08:06:12.520Z,13.27
2022-11-16T08:08:43.293Z,14.40
2022-11-16T08:11:14.205Z,15.43
2022-11-16T08:13:44.616Z,14.30
2022-11-16T08:16:16.412Z,14.97
2022-11-16T08:18:47.801Z,13.73
2022-11-16T08:21:19.899Z,13.17
2022-11-16T08:23:55.244Z,13.27
2022-11-16T08:26:27.610Z,14.60
2022-11-16T08:29:02.214Z,11.77
2022-11-16T08:31:35.882Z,13.20
2022-11-16T08:34:16.826Z,13.27
2022-11-16T08:36:51.412Z,14.13
2022-11-16T08:39:26.627Z,13.80
2022-11-16T08:41:55.830Z,12.57
2022-11-16T08:44:25.372Z,13.07
2022-11-16T08:46:56.970Z,14.03
2022-11-16T08:49:34.070Z,15.50
2022-11-16T08:52:03.297Z,13.33
2022-11-16T08:54:35.327Z,13.10
2022-11-16T08:57:04.585Z,16.20
2022-11-16T08:59:37.640Z,13.77
2022-11-16T09:02:11.636Z,15.40
2022-11-16T09:04:40.950Z,13.57
2022-11-16T09:07:11.645Z,14.17
2022-11-16T09:09:42.311Z,14.47
2022-11-16T09:12:11.623Z,13.67
2022-11-16T09:14:40.765Z,15.03
2022-11-16T09:17:09.914Z,15.20
2022-11-16T09:19:39.033Z,16.60
2022-11-16T09:22:08.526Z,15.10
2022-11-16T09:24:37.653Z,15.00
2022-11-16T09:27:08.128Z,15.00
2022-11-16T09:29:37.276Z,15.43
2022-11-16T09:32:06.674Z,13.90
2022-11-16T09:34:36.063Z,17.97
2022-11-16T09:37:05.251Z,14.73
2022-11-16T09:39:34.474Z,15.43
2022-11-16T09:42:18.215Z,16.03
2022-11-16T09:44:59.465Z,16.50
2022-11-16T09:47:41.855Z,16.20
2022-11-16T09:50:30.730Z,15.30
2022-11-16T09:53:08.205Z,15.20
2022-11-16T09:55:43.380Z,15.63
2022-11-16T09:58:18.918Z,15.90
2022-11-16T10:00:55.547Z,16.23
2022-11-16T10:03:27.592Z,15.43
2022-11-16T10:06:03.799Z,17.07
2022-11-16T10:08:44.164Z,16.83
2022-11-16T10:11:41.425Z,16.03
2022-11-16T10:14:25.898Z,17.53
2022-11-16T10:17:02.982Z,17.73
2022-11-16T10:19:44.192Z,18.03
2022-11-16T10:22:38.171Z,16.27
2022-11-16T10:25:16.036Z,17.57
2022-11-16T10:28:04.812Z,17.60
2022-11-16T10:30:41.238Z,15.73
2022-11-16T10:33:15.832Z,17.70
2022-11-16T10:35:49.032Z,16.30
2022-11-16T10:38:21.343Z,18.50
2022-11-16T10:40:55.163Z,16.60
2022-11-16T10:43:28.173Z,16.57
2022-11-16T10:46:06.713Z,16.90
2022-11-16T10:48:41.275Z,16.87
2022-11-16T10:51:11.143Z,16.90
2022-11-16T10:53:42.420Z,16.97
2022-11-16T10:56:22.004Z,19.50
2022-11-16T10:58:53.936Z,18.47
2022-11-16T11:01:33.961Z,18.60
2022-11-16T11:04:23.701Z,17.70
2022-11-16T11:06:55.010Z,17.17
2022-11-16T11:09:27.754Z,19.30
2022-11-16T11:12:19.992Z,16.00
2022-11-16T11:15:05.681Z,16.37
2022-11-16T11:17:38.373Z,17.87
2022-11-16T11:20:19.226Z,16.63
2022-11-16T11:22:54.198Z,17.63
2022-11-16T11:25:26.853Z,17.43
2022-11-16T11:28:06.986Z,16.50
2022-11-16T11:30:36.925Z,17.20
2022-11-16T11:33:13.563Z,16.80
2022-11-16T11:35:43.313Z,18.07
2022-11-16T11:38:17.089Z,17.37
2022-11-16T11:40:58.391Z,16.27
2022-11-16T11:43:28.363Z,16.77
2022-11-16T11:46:05.296Z,18.20
2022-11-16T11:48:47.746Z,16.40
2022-11-16T11:51:22.319Z,17.57
2022-11-16T11:53:56.099Z,15.83
2022-11-16T11:56:25.853Z,16.10
2022-11-16T11:58:55.884Z,17.50
2022-11-16T12:01:56.191Z,17.53
2022-11-16T12:05:08.147Z,19.10
2022-11-16T12:07:52.709Z,16.63
2022-11-16T12:10:30.223Z,18.10
2022-11-16T12:13:14.097Z,17.93
2022-11-16T12:16:06.306Z,16.60
2022-11-16T12:18:51.295Z,17.70
2022-11-16T12:21:32.627Z,18.07
2022-11-16T12:24:24.369Z,17.90
2022-11-16T12:27:03.306Z,16.27
2022-11-16T12:29:42.254Z,17.33
2022-11-16T12:32:36.938Z,17.13
2022-11-16T12:35:23.561Z,15.57
2022-11-16T12:38:01.108Z,16.77
2022-11-16T12:40:43.416Z,16.93
2022-11-16T12:43:21.355Z,17.23
2022-11-16T12:46:07.394Z,17.00
2022-11-16T12:49:01.382Z,18.57
2022-11-16T12:51:50.043Z,15.37
2022-11-16T12:54:33.739Z,19.23
2022-11-16T12:57:13.075Z,16.63
2022-11-16T13:00:01.270Z,15.63
2022-11-16T13:02:46.077Z,15.80
2022-11-16T13:05:19.954Z,16.83
2022-11-16T13:07:53.738Z,17.27
2022-11-16T13:10:28.125Z,16.77
2022-11-16T13:13:34.797Z,16.63
2022-11-16T13:15:54.023Z,15.63
2022-11-16T13:18:24.880Z,16.80
2022-11-16T13:20:59.777Z,15.90
2022-11-16T13:23:52.831Z,15.17
2022-11-16T13:26:29.112Z,16.20
2022-11-16T13:29:08.933Z,14.43
2022-11-16T13:31:44.752Z,15.00
2022-11-16T13:34:17.845Z,14.47
2022-11-16T13:36:47.812Z,15.07
2022-11-16T13:39:22.270Z,13.87
2022-11-16T13:42:06.414Z,12.40
2022-11-16T13:44:37.076Z,17.03
2022-11-16T13:47:18.540Z,14.93
2022-11-16T13:49:52.865Z,13.80
2022-11-16T13:52:24.049Z,13.90
2022-11-16T13:55:01.582Z,14.70
2022-11-16T13:57:33.509Z,16.20
2022-11-16T14:00:21.553Z,16.47
2022-11-16T14:03:10.749Z,15.57
2022-11-16T14:05:42.297Z,15.27
2022-11-16T14:08:48.974Z,13.47
2022-11-16T14:11:33.336Z,14.57
2022-11-16T14:14:05.609Z,14.93
2022-11-16T14:16:48.531Z,15.17
2022-11-16T14:19:54.827Z,15.07
2022-11-16T14:22:41.954Z,16.77
2022-11-16T14:25:21.882Z,15.33
2022-11-16T14:28:01.023Z,15.53
2022-11-16T14:30:35.722Z,15.03
2022-11-16T14:33:06.296Z,14.10
2022-11-16T14:35:37.263Z,14.93
2022-11-16T14:38:16.770Z,14.67
2022-11-16T14:40:48.507Z,13.33
2022-11-16T14:43:22.691Z,14.37
2022-11-16T14:45:57.820Z,15.30
2022-11-16T14:48:29.016Z,15.20
2022-11-16T14:51:09.420Z,15.43
2022-11-16T14:53:42.708Z,13.67
2022-11-16T14:56:13.656Z,13.57
2022-11-16T14:58:53.377Z,15.13
2022-11-16T15:01:26.982Z,14.10
2022-11-16T15:04:02.259Z,14.23
2022-11-16T15:06:36.972Z,13.60
2022-11-16T15:09:07.487Z,14.03
2022-11-16T15:11:59.050Z,14.97
2022-11-16T15:14:32.904Z,15.17
2022-11-16T15:17:02.195Z,14.60
2022-11-16T15:19:32.923Z,16.10
2022-11-16T15:22:04.425Z,14.40
2022-11-16T15:24:35.458Z,13.37
2022-11-16T15:27:23.985Z,12.57
2022-11-16T15:29:53.212Z,13.77
2022-11-16T15:32:22.296Z,13.90
2022-11-16T15:34:55.149Z,13.17
2022-11-16T15:37:31.565Z,13.40
2022-11-16T15:40:03.213Z,12.13
2022-11-16T15:42:32.592Z,10.90
2022-11-16T15:45:15.737Z,11.40
2022-11-16T15:47:46.905Z,10.27
2022-11-16T15:50:20.862Z,9.47
2022-11-16T15:52:54.987Z,9.40
2022-11-16T15:55:35.013Z,9.33
2022-11-16T15:58:14.829Z,9.17
2022-11-16T16:00:48.244Z,7.60
2022-11-16T16:03:23.872Z,7.57
2022-11-16T16:05:55.698Z,7.97
2022-11-16T16:08:31.261Z,6.20
2022-11-16T16:11:10.867Z,6.83
2022-11-16T16:13:42.517Z,8.23
2022-11-16T16:16:36.782Z,6.70
2022-11-16T16:19:25.534Z,6.47
2022-11-16T16:21:58.392Z,5.77
2022-11-16T16:24:42.270Z,6.77
2022-11-16T16:27:13.899Z,6.43
2022-11-16T16:29:43.479Z,7.00
2022-11-16T16:32:16.951Z,6.00
2022-11-16T16:34:46.102Z,5.87
2022-11-16T16:37:16.611Z,6.97
2022-11-16T16:39:45.778Z,6.53
2022-11-16T16:42:17.045Z,7.10
2022-11-16T16:44:48.500Z,7.50
2022-11-16T16:47:20.572Z,6.10
2022-11-16T16:49:49.837Z,6.93
2022-11-16T16:52:20.327Z,6.40
2022-11-16T16:54:49.477Z,6.60
2022-11-16T16:57:19.719Z,6.83
2022-11-16T16:59:49.172Z,7.17
2022-11-16T17:02:18.639Z,7.10
2022-11-16T17:04:48.431Z,6.60
2022-11-16T17:07:19.299Z,7.00
2022-11-16T17:09:48.464Z,7.73
2022-11-16T17:12:17.593Z,6.90
2022-11-16T17:14:51.383Z,7.60
2022-11-16T17:17:21.060Z,7.63
2022-11-16T17:19:50.225Z,7.07
2022-11-16T17:22:21.632Z,7.53
2022-11-16T17:24:50.730Z,6.13
2022-11-16T17:27:19.844Z,7.50
2022-11-16T17:29:48.934Z,6.70
2022-11-16T17:32:18.012Z,7.00
2022-11-16T17:34:47.093Z,7.07
2022-11-16T17:37:16.445Z,6.13
2022-11-16T17:39:46.916Z,6.20
2022-11-16T17:42:16.197Z,6.87
2022-11-16T17:44:45.288Z,7.30
2022-11-16T17:47:14.514Z,7.83
2022-11-16T17:49:43.637Z,7.13
2022-11-16T17:52:12.877Z,6.47
2022-11-16T17:54:42.026Z,7.63
2022-11-16T17:57:12.851Z,7.77
2022-11-16T17:59:42.030Z,7.47
2022-11-16T18:02:12.342Z,6.83
2022-11-16T18:04:42.278Z,7.17
2022-11-16T18:07:12.990Z,7.33
2022-11-16T18:09:42.194Z,7.30
2022-11-16T18:12:12.669Z,7.17
2022-11-16T18:14:42.495Z,7.57
2022-11-16T18:17:11.899Z,6.97
2022-11-16T18:19:41.123Z,7.57
2022-11-16T18:22:10.286Z,7.63
2022-11-16T18:24:39.460Z,7.80
2022-11-16T18:27:08.583Z,7.07
2022-11-16T18:29:39.499Z,6.50
2022-11-16T18:32:09.466Z,7.23
2022-11-16T18:34:38.649Z,6.73
2022-11-16T18:37:07.928Z,7.43
2022-11-16T18:39:37.214Z,7.73
2022-11-16T18:42:06.914Z,7.30
2022-11-16T18:44:36.183Z,8.10
2022-11-16T18:47:06.974Z,6.63
2022-11-16T18:49:36.299Z,7.67
2022-11-16T18:52:05.610Z,8.10
2022-11-16T18:54:34.763Z,6.93
2022-11-16T18:57:03.893Z,7.17
2022-11-16T18:59:33.071Z,7.77
2022-11-16T19:02:02.309Z,7.23
2022-11-16T19:04:32.761Z,7.47
2022-11-16T19:07:02.082Z,7.43
2022-11-16T19:09:31.244Z,7.07
2022-11-16T19:12:00.504Z,8.37
2022-11-16T19:14:29.608Z,6.97
2022-11-16T19:16:59.340Z,7.40
2022-11-16T19:19:29.826Z,8.33
2022-11-16T19:22:00.612Z,7.63
2022-11-16T19:24:30.235Z,7.33
2022-11-16T19:26:59.498Z,7.73
2022-11-16T19:29:28.594Z,7.23
2022-11-16T19:31:57.689Z,6.07
2022-11-16T19:34:31.994Z,7.27
2022-11-16T19:37:03.723Z,6.13
2022-11-16T19:39:32.811Z,6.37
2022-11-16T19:42:01.936Z,5.73
2022-11-16T19:44:31.079Z,6.00
2022-11-16T19:47:00.648Z,5.83
2022-11-16T19:49:29.777Z,6.77
2022-11-16T19:51:59.572Z,6.83
2022-11-16T19:54:30.179Z,6.50
2022-11-16T19:56:59.479Z,5.73
2022-11-16T19:59:28.882Z,4.83
2022-11-16T20:01:58.057Z,5.20
2022-11-16T20:04:32.062Z,5.67
2022-11-16T20:07:01.411Z,5.57
2022-11-16T20:09:32.248Z,5.03
2022-11-16T20:12:01.489Z,5.07
2022-11-16T20:14:31.031Z,4.57
2022-11-16T20:17:00.862Z,4.67
2022-11-16T20:19:29.979Z,4.07
2022-11-16T20:21:59.858Z,4.33
2022-11-16T20:24:28.948Z,3.87
2022-11-16T20:26:59.459Z,4.20
2022-11-16T20:29:28.537Z,4.07
2022-11-16T20:31:57.657Z,3.80
2022-11-16T20:34:26.762Z,3.63
2022-11-16T20:36:55.810Z,3.60
2022-11-16T20:39:24.989Z,3.53
2022-11-16T20:41:54.600Z,3.60
2022-11-16T20:44:25.254Z,4.17
2022-11-16T20:46:54.427Z,4.03
2022-11-16T20:49:23.589Z,4.37
2022-11-16T20:51:53.007Z,3.60
2022-11-16T20:54:24.331Z,3.70
2022-11-16T20:56:53.628Z,4.23
2022-11-16T20:59:24.206Z,3.57
2022-11-16T21:01:56.222Z,4.03
2022-11-16T21:04:25.331Z,4.03
2022-11-16T21:06:54.468Z,3.87
2022-11-16T21:09:25.646Z,3.80
2022-11-16T21:12:12.045Z,4.37
2022-11-16T21:14:42.923Z,3.83
2022-11-16T21:17:12.018Z,4.00
2022-11-16T21:19:54.295Z,3.73
2022-11-16T21:22:32.897Z,4.10
2022-11-16T21:25:02.141Z,4.13
2022-11-16T21:27:31.234Z,4.00
2022-11-16T21:30:01.761Z,3.50
2022-11-16T21:32:30.890Z,3.43
2022-11-16T21:35:00.172Z,3.67
2022-11-16T21:37:29.698Z,3.60
2022-11-16T21:39:58.797Z,2.90
2022-11-16T21:42:27.906Z,4.20
2022-11-16T21:44:56.988Z,3.30
2022-11-16T21:47:27.560Z,3.93
2022-11-16T21:50:29.619Z,3.00
2022-11-16T21:52:46.369Z,3.27
2022-11-16T21:55:15.504Z,3.40
2022-11-16T21:57:44.807Z,3.20
2022-11-16T22:00:14.914Z,2.63
2022-11-16T22:02:45.395Z,3.10
2022-11-16T22:05:32.581Z,2.67
2022-11-16T22:08:05.991Z,2.53
2022-11-16T22:10:35.810Z,3.07
2022-11-16T22:13:04.991Z,2.70
2022-11-16T22:15:34.231Z,2.80
2022-11-16T22:18:05.524Z,2.57
2022-11-16T22:20:34.707Z,2.27
2022-11-16T22:23:03.914Z,2.27
2022-11-16T22:25:33.378Z,2.23
2022-11-16T22:30:59.563Z,2.23
2022-11-16T22:33:30.095Z,2.00
2022-11-16T22:35:59.485Z,2.03
2022-11-16T22:38:28.668Z,1.80
2022-11-16T22:40:58.696Z,1.90
2022-11-16T22:43:29.715Z,2.13
2022-11-16T22:45:59.851Z,1.93
2022-11-16T22:48:34.990Z,1.50
2022-11-16T22:51:06.650Z,1.67
2022-11-16T22:53:36.180Z,1.57
2022-11-16T22:56:07.234Z,1.87
2022-11-16T22:58:36.933Z,2.00
2022-11-16T23:01:07.594Z,1.67
2022-11-16T23:03:39.208Z,1.77
2022-11-16T23:06:09.523Z,1.87
2022-11-16T23:08:40.011Z,1.80
2022-11-16T23:11:32.224Z,1.67
2022-11-16T23:14:19.373Z,1.60
2022-11-16T23:16:48.843Z,1.90
2022-11-16T23:19:38.862Z,1.63
2022-11-16T23:22:26.129Z,1.50
2022-11-16T23:25:12.743Z,1.60
2022-11-16T23:27:45.970Z,1.53
2022-11-16T23:30:15.311Z,1.73
2022-11-16T23:32:44.577Z,1.77
2022-11-16T23:35:15.373Z,1.57
2022-11-16T23:37:55.776Z,1.23
2022-11-16T23:40:26.903Z,1.40
2022-11-16T23:43:14.249Z,1.40
2022-11-16T23:45:44.463Z,1.60
2022-11-16T23:48:15.251Z,1.50
2022-11-16T23:50:46.670Z,1.60
2022-11-16T23:53:15.833Z,1.67
2022-11-16T23:55:44.896Z,1.50
2022-11-16T23:58:15.403Z,1.47
